Terminal Aerodrome Forecast
Issued by NWS

Home | Current Version | Previous Version | Text Only | Print | Product List | Glossary On
Versions: 1 2 3 4 5 6 7 8 9 10 11 12 13 14 15 16 17
000
FTUS43 KTOP 230600 AAA
TAFMHK
TAF AMD
KMHK 230605Z 2306/2406 15011KT P6SM VCSH BKN090
      TEMPO 2306/2307 6SM -SHRA BKN080
     FM231400 17015G22KT P6SM SCT100
     FM231700 18022G32KT P6SM SCT120=

USA.gov is the U.S. government's official web portal to all federal, state and local government web resources and services.